createdAt,value
2022-11-09T00:01:49.576Z,17.97
2022-11-09T00:04:21.330Z,17.00
2022-11-09T00:06:50.665Z,18.50
2022-11-09T00:09:20.683Z,18.10
2022-11-09T00:11:49.573Z,17.43
2022-11-09T00:14:18.624Z,18.93
2022-11-09T00:16:46.566Z,18.17
2022-11-09T00:19:16.605Z,17.97
2022-11-09T00:21:48.363Z,17.63
2022-11-09T00:24:17.974Z,17.63
2022-11-09T00:26:46.157Z,17.30
2022-11-09T00:29:18.472Z,18.27
2022-11-09T00:31:46.725Z,17.07
2022-11-09T00:34:16.968Z,18.07
2022-11-09T00:36:44.944Z,18.60
2022-11-09T00:39:13.707Z,17.67
2022-11-09T00:41:42.972Z,18.07
2022-11-09T00:44:12.492Z,16.43
2022-11-09T00:46:40.597Z,17.63
2022-11-09T00:49:09.621Z,17.77
2022-11-09T00:51:38.649Z,17.80
2022-11-09T00:54:08.144Z,18.60
2022-11-09T00:56:36.493Z,16.63
2022-11-09T00:59:06.642Z,17.40
2022-11-09T01:01:40.720Z,16.97
2022-11-09T01:04:08.933Z,16.63
2022-11-09T01:06:37.051Z,16.93
2022-11-09T01:09:11.867Z,16.67
2022-11-09T01:11:40.532Z,17.73
2022-11-09T01:14:11.641Z,17.57
2022-11-09T01:16:41.628Z,16.50
2022-11-09T01:19:10.582Z,17.20
2022-11-09T01:21:38.570Z,17.60
2022-11-09T01:24:08.165Z,17.60
2022-11-09T01:26:36.525Z,17.17
2022-11-09T01:29:04.667Z,17.30
2022-11-09T01:31:35.945Z,17.50
2022-11-09T01:34:04.666Z,18.47
2022-11-09T01:36:35.278Z,17.10
2022-11-09T01:39:03.349Z,18.23
2022-11-09T01:41:32.506Z,17.77
2022-11-09T01:44:06.830Z,18.20
2022-11-09T01:46:41.951Z,17.50
2022-11-09T01:49:16.733Z,16.93
2022-11-09T01:51:49.125Z,18.13
2022-11-09T01:54:22.658Z,19.00
2022-11-09T01:56:55.550Z,17.83
2022-11-09T01:59:30.468Z,18.17
2022-11-09T02:02:01.368Z,18.43
2022-11-09T02:04:35.627Z,18.40
2022-11-09T02:07:07.143Z,18.40
2022-11-09T02:09:42.101Z,18.60
2022-11-09T02:12:10.915Z,18.73
2022-11-09T02:14:40.664Z,17.67
2022-11-09T02:17:12.560Z,19.20
2022-11-09T02:19:40.699Z,18.57
2022-11-09T02:22:10.541Z,19.17
2022-11-09T02:24:38.630Z,18.37
2022-11-09T02:27:07.008Z,18.27
2022-11-09T02:29:41.681Z,17.97
2022-11-09T02:32:13.135Z,18.43
2022-11-09T02:34:44.620Z,18.43
2022-11-09T02:37:14.085Z,18.17
2022-11-09T02:39:42.643Z,18.33
2022-11-09T02:42:20.979Z,18.33
2022-11-09T02:44:56.397Z,18.73
2022-11-09T02:47:26.298Z,18.77
2022-11-09T02:49:58.389Z,19.27
2022-11-09T02:52:29.542Z,19.23
2022-11-09T02:54:58.740Z,18.93
2022-11-09T02:57:30.028Z,20.07
2022-11-09T02:59:59.682Z,19.17
2022-11-09T03:02:28.634Z,19.13
2022-11-09T03:04:57.668Z,19.93
2022-11-09T03:07:31.226Z,19.93
2022-11-09T03:10:01.187Z,20.57
2022-11-09T03:12:30.655Z,20.63
2022-11-09T03:15:17.893Z,20.17
2022-11-09T03:17:47.589Z,21.03
2022-11-09T03:20:18.669Z,21.10
2022-11-09T03:22:46.965Z,20.97
2022-11-09T03:25:19.404Z,20.93
2022-11-09T03:27:48.666Z,20.73
2022-11-09T03:30:19.564Z,20.83
2022-11-09T03:32:50.692Z,20.87
2022-11-09T03:35:19.701Z,20.40
2022-11-09T03:37:50.284Z,20.30
2022-11-09T03:40:20.442Z,20.90
2022-11-09T03:42:50.958Z,20.93
2022-11-09T03:45:22.672Z,20.70
2022-11-09T03:47:50.645Z,21.30
2022-11-09T03:50:19.312Z,21.27
2022-11-09T03:52:48.595Z,21.47
2022-11-09T03:55:16.612Z,20.67
2022-11-09T03:57:47.415Z,20.83
2022-11-09T04:00:20.443Z,20.67
2022-11-09T04:02:48.884Z,20.60
2022-11-09T04:05:17.661Z,21.43
2022-11-09T04:07:52.535Z,19.30
2022-11-09T04:10:21.861Z,19.77
2022-11-09T04:12:52.677Z,20.80
2022-11-09T04:15:21.526Z,20.77
2022-11-09T04:17:56.642Z,20.73
2022-11-09T04:20:26.743Z,19.87
2022-11-09T04:22:58.976Z,20.87
2022-11-09T04:25:34.280Z,20.93
2022-11-09T04:28:05.572Z,20.70
2022-11-09T04:30:36.538Z,19.90
2022-11-09T04:33:05.378Z,21.40
2022-11-09T04:35:35.695Z,21.40
2022-11-09T04:38:06.113Z,21.13
2022-11-09T04:40:35.737Z,20.90
2022-11-09T04:43:06.750Z,20.63
2022-11-09T04:45:36.671Z,20.27
2022-11-09T04:48:07.462Z,20.97
2022-11-09T04:50:38.697Z,20.17
2022-11-09T04:53:11.942Z,19.57
2022-11-09T04:55:41.384Z,21.17
2022-11-09T04:58:11.362Z,21.00
2022-11-09T05:00:42.165Z,20.63
2022-11-09T05:03:10.469Z,20.73
2022-11-09T05:05:45.447Z,21.23
2022-11-09T05:08:16.119Z,20.70
2022-11-09T05:10:44.866Z,21.53
2022-11-09T05:13:15.708Z,21.40
2022-11-09T05:15:43.797Z,21.10
2022-11-09T05:18:15.362Z,21.00
2022-11-09T05:20:43.486Z,21.73
2022-11-09T05:23:35.903Z,22.70
2022-11-09T05:26:07.392Z,21.63
2022-11-09T05:28:36.749Z,21.77
2022-11-09T05:31:04.742Z,21.30
2022-11-09T05:33:32.944Z,21.73
2022-11-09T05:36:00.898Z,21.63
2022-11-09T05:38:29.737Z,21.43
2022-11-09T05:41:00.497Z,20.23
2022-11-09T05:43:28.842Z,20.37
2022-11-09T05:46:01.344Z,20.57
2022-11-09T05:48:34.427Z,20.63
2022-11-09T05:51:03.372Z,21.67
2022-11-09T05:53:31.663Z,22.33
2022-11-09T05:56:04.643Z,22.27
2022-11-09T05:58:38.721Z,22.40
2022-11-09T06:01:10.627Z,22.37
2022-11-09T06:03:38.681Z,21.70
2022-11-09T06:06:09.253Z,22.73
2022-11-09T06:08:40.679Z,21.87
2022-11-09T06:11:11.266Z,22.80
2022-11-09T06:13:39.728Z,21.90
2022-11-09T06:16:12.715Z,22.23
2022-11-09T06:18:41.753Z,22.90
2022-11-09T06:21:11.341Z,23.87
2022-11-09T06:23:40.321Z,21.73
2022-11-09T06:26:10.215Z,22.03
2022-11-09T06:28:40.636Z,23.20
2022-11-09T06:31:12.774Z,23.03
2022-11-09T06:33:41.763Z,25.00
2022-11-09T06:36:11.666Z,29.90
2022-11-09T06:38:39.800Z,23.83
2022-11-09T06:41:11.833Z,23.33
2022-11-09T06:43:40.747Z,22.97
2022-11-09T06:46:11.891Z,22.07
2022-11-09T06:48:42.340Z,23.10
2022-11-09T06:51:12.732Z,27.87
2022-11-09T06:53:41.746Z,30.50
2022-11-09T06:56:10.657Z,21.83
2022-11-09T06:58:38.925Z,22.87
2022-11-09T07:01:16.848Z,23.27
2022-11-09T07:03:45.821Z,23.47
2022-11-09T07:06:15.041Z,23.67
2022-11-09T07:08:43.017Z,24.20
2022-11-09T07:11:16.663Z,23.57
2022-11-09T07:13:44.759Z,23.50
2022-11-09T07:16:19.823Z,24.20
2022-11-09T07:18:48.768Z,23.20
2022-11-09T07:21:17.761Z,23.33
2022-11-09T07:23:49.011Z,23.47
2022-11-09T07:26:17.781Z,22.87
2022-11-09T07:28:50.091Z,23.93
2022-11-09T07:31:19.663Z,23.53
2022-11-09T07:33:47.748Z,22.90
2022-11-09T07:36:21.215Z,22.20
2022-11-09T07:38:52.496Z,23.37
2022-11-09T07:41:20.425Z,22.83
2022-11-09T07:43:49.754Z,23.60
2022-11-09T07:46:20.670Z,22.37
2022-11-09T07:48:51.920Z,23.10
2022-11-09T07:51:20.681Z,23.20
2022-11-09T07:53:49.873Z,22.73
2022-11-09T07:56:18.063Z,23.33
2022-11-09T07:58:46.804Z,22.90
2022-11-09T08:01:15.353Z,22.90
2022-11-09T08:03:48.487Z,24.60
2022-11-09T08:06:18.597Z,22.37
2022-11-09T08:08:49.567Z,24.10
2022-11-09T08:11:21.139Z,25.07
2022-11-09T08:13:49.810Z,23.73
2022-11-09T08:16:17.780Z,23.80
2022-11-09T08:18:48.759Z,23.27
2022-11-09T08:21:17.471Z,23.50
2022-11-09T08:23:45.788Z,23.83
2022-11-09T08:26:15.708Z,23.90
2022-11-09T08:28:44.406Z,24.20
2022-11-09T08:31:12.790Z,23.03
2022-11-09T08:33:42.816Z,22.67
2022-11-09T08:36:14.691Z,23.43
2022-11-09T08:38:47.827Z,24.27
2022-11-09T08:41:16.804Z,23.00
2022-11-09T08:43:45.800Z,23.00
2022-11-09T08:46:14.406Z,23.83
2022-11-09T08:48:45.775Z,23.67
2022-11-09T08:51:15.807Z,24.17
2022-11-09T08:53:43.907Z,23.27
2022-11-09T08:56:13.026Z,22.23
2022-11-09T08:58:41.161Z,24.30
2022-11-09T09:01:15.509Z,24.17
2022-11-09T09:03:45.557Z,22.77
2022-11-09T09:06:14.993Z,22.53
2022-11-09T09:08:42.922Z,23.53
2022-11-09T09:11:11.808Z,22.17
2022-11-09T09:13:43.252Z,23.53
2022-11-09T09:16:14.831Z,23.27
2022-11-09T09:18:43.778Z,22.43
2022-11-09T09:21:13.831Z,23.67
2022-11-09T09:23:43.314Z,22.10
2022-11-09T09:26:12.447Z,22.90
2022-11-09T09:28:40.705Z,23.27
2022-11-09T09:31:12.055Z,21.87
2022-11-09T09:33:46.532Z,22.40
2022-11-09T09:36:18.863Z,23.10
2022-11-09T09:38:51.849Z,23.70
2022-11-09T09:41:25.083Z,23.80
2022-11-09T09:43:58.366Z,22.97
2022-11-09T09:46:31.721Z,22.60
2022-11-09T09:49:06.879Z,21.67
2022-11-09T09:51:40.359Z,22.37
2022-11-09T09:54:19.833Z,23.13
2022-11-09T09:56:50.213Z,22.07
2022-11-09T09:59:23.786Z,22.63
2022-11-09T10:01:52.825Z,23.60
2022-11-09T10:04:23.875Z,22.50
2022-11-09T10:07:04.745Z,22.53
2022-11-09T10:09:56.492Z,23.27
2022-11-09T10:12:34.484Z,23.33
2022-11-09T10:15:13.962Z,21.80
2022-11-09T10:17:53.902Z,22.77
2022-11-09T10:20:38.871Z,23.17
2022-11-09T10:23:42.840Z,22.77
2022-11-09T10:26:19.161Z,22.50
2022-11-09T10:29:15.106Z,26.37
2022-11-09T10:31:44.888Z,24.17
2022-11-09T10:34:19.844Z,23.37
2022-11-09T10:36:57.877Z,23.47
2022-11-09T10:39:32.180Z,23.30
2022-11-09T10:42:20.776Z,22.03
2022-11-09T10:45:16.844Z,23.47
2022-11-09T10:48:04.750Z,22.20
2022-11-09T10:50:54.011Z,23.60
2022-11-09T10:53:41.446Z,21.67
2022-11-09T10:56:32.953Z,22.13
2022-11-09T10:59:48.454Z,22.07
2022-11-09T11:02:44.580Z,22.00
2022-11-09T11:05:35.870Z,22.57
2022-11-09T11:08:29.987Z,22.27
2022-11-09T11:11:33.702Z,22.50
2022-11-09T11:14:29.879Z,22.10
2022-11-09T11:17:26.838Z,22.57
2022-11-09T11:20:28.843Z,21.93
2022-11-09T11:23:18.110Z,22.50
2022-11-09T11:26:18.774Z,22.43
2022-11-09T11:29:14.079Z,22.20
2022-11-09T11:32:03.313Z,22.60
2022-11-09T11:35:00.281Z,22.33
2022-11-09T11:38:01.878Z,22.93
2022-11-09T11:41:01.306Z,22.33
2022-11-09T11:43:55.887Z,21.17
2022-11-09T11:46:47.325Z,21.87
2022-11-09T11:49:59.918Z,22.07
2022-11-09T11:53:21.263Z,21.37
2022-11-09T11:56:23.881Z,22.10
2022-11-09T11:59:37.991Z,20.83
2022-11-09T12:02:43.044Z,21.67
2022-11-09T12:05:54.890Z,21.37
2022-11-09T12:08:59.911Z,21.90
2022-11-09T12:11:59.034Z,21.47
2022-11-09T12:14:58.488Z,21.30
2022-11-09T12:17:54.884Z,20.50
2022-11-09T12:20:50.925Z,20.53
2022-11-09T12:23:52.605Z,20.77
2022-11-09T12:27:11.017Z,20.87
2022-11-09T12:30:07.272Z,20.43
2022-11-09T12:32:57.656Z,20.73
2022-11-09T12:35:53.035Z,19.87
2022-11-09T12:38:48.536Z,20.00
2022-11-09T12:41:38.835Z,19.87
2022-11-09T12:44:30.405Z,18.93
2022-11-09T12:47:21.842Z,19.63
2022-11-09T12:50:14.542Z,20.47
2022-11-09T12:53:05.822Z,19.00
2022-11-09T12:55:57.190Z,19.57
2022-11-09T12:58:44.947Z,19.43
2022-11-09T13:01:56.240Z,19.53
2022-11-09T13:04:56.952Z,19.73
2022-11-09T13:07:51.939Z,19.57
2022-11-09T13:10:41.213Z,18.97
2022-11-09T13:13:27.953Z,19.03
2022-11-09T13:16:37.163Z,18.93
2022-11-09T13:19:54.275Z,19.47
2022-11-09T13:23:04.905Z,18.70
2022-11-09T13:25:54.037Z,19.47
2022-11-09T13:29:11.173Z,18.87
2022-11-09T13:32:25.012Z,20.10
2022-11-09T13:36:01.936Z,18.47
2022-11-09T13:39:03.999Z,19.73
2022-11-09T13:41:53.837Z,18.87
2022-11-09T13:44:42.309Z,18.93
2022-11-09T13:47:37.482Z,19.23
2022-11-09T13:50:27.296Z,19.40
2022-11-09T13:53:29.850Z,19.60
2022-11-09T13:56:27.172Z,19.67
2022-11-09T13:59:23.446Z,19.73
2022-11-09T14:02:19.986Z,19.87
2022-11-09T14:05:24.821Z,20.13
2022-11-09T14:08:21.152Z,19.90
2022-11-09T14:11:31.668Z,20.53
2022-11-09T14:14:51.477Z,20.33
2022-11-09T14:17:44.126Z,20.03
2022-11-09T14:20:45.057Z,19.63
2022-11-09T14:23:33.919Z,20.23
2022-11-09T14:26:22.685Z,19.70
2022-11-09T14:29:23.009Z,21.07
2022-11-09T14:32:30.875Z,19.77
2022-11-09T14:35:24.625Z,21.00
2022-11-09T14:38:20.668Z,20.47
2022-11-09T14:41:22.470Z,20.00
2022-11-09T14:44:17.514Z,20.67
2022-11-09T14:47:07.436Z,19.70
2022-11-09T14:49:55.999Z,20.70
2022-11-09T14:52:42.823Z,20.30
2022-11-09T14:55:31.033Z,20.23
2022-11-09T14:58:19.446Z,20.63
2022-11-09T15:01:16.567Z,20.37
2022-11-09T15:04:20.217Z,20.00
2022-11-09T15:07:18.340Z,19.97
2022-11-09T15:10:20.719Z,20.10
2022-11-09T15:13:07.631Z,21.53
2022-11-09T15:16:00.305Z,20.77
2022-11-09T15:18:47.757Z,20.07
2022-11-09T15:21:37.935Z,19.97
2022-11-09T15:24:29.021Z,20.67
2022-11-09T15:27:32.908Z,21.07
2022-11-09T15:30:34.979Z,20.70
2022-11-09T15:33:27.806Z,21.20
2022-11-09T15:36:25.357Z,20.20
2022-11-09T15:39:17.528Z,20.47
2022-11-09T15:42:07.591Z,20.73
2022-11-09T15:44:56.064Z,21.27
2022-11-09T15:47:50.009Z,21.93
2022-11-09T15:50:37.581Z,21.80
2022-11-09T15:53:25.660Z,21.53
2022-11-09T15:56:16.062Z,21.00
2022-11-09T15:59:08.258Z,21.93
2022-11-09T16:01:56.263Z,21.77
2022-11-09T16:04:43.210Z,22.40
2022-11-09T16:07:29.909Z,22.33
2022-11-09T16:10:17.848Z,22.03
2022-11-09T16:13:05.364Z,21.67
2022-11-09T16:15:53.070Z,21.80
2022-11-09T16:18:39.786Z,21.77
2022-11-09T16:21:26.600Z,22.33
2022-11-09T16:24:13.232Z,22.13
2022-11-09T16:26:59.924Z,22.07
2022-11-09T16:29:48.588Z,21.87
2022-11-09T16:32:36.469Z,23.40
2022-11-09T16:35:27.143Z,22.10
2022-11-09T16:38:14.989Z,21.00
2022-11-09T16:41:02.772Z,22.33
2022-11-09T16:43:53.799Z,22.30
2022-11-09T16:46:45.676Z,22.63
2022-11-09T16:49:34.040Z,22.73
2022-11-09T16:52:20.366Z,22.97
2022-11-09T16:55:09.451Z,23.00
2022-11-09T16:57:58.030Z,22.47
2022-11-09T17:01:09.607Z,23.37
2022-11-09T17:03:57.823Z,23.43
2022-11-09T17:06:46.382Z,22.27
2022-11-09T17:09:34.444Z,22.67
2022-11-09T17:12:21.080Z,23.17
2022-11-09T17:15:11.850Z,23.17
2022-11-09T17:17:58.257Z,22.67
2022-11-09T17:20:45.977Z,23.13
2022-11-09T17:23:37.709Z,24.07
2022-11-09T17:26:25.591Z,23.77
2022-11-09T17:29:16.789Z,22.77
2022-11-09T17:32:03.159Z,23.07
2022-11-09T17:34:49.523Z,22.97
2022-11-09T17:37:35.955Z,22.70
2022-11-09T17:40:28.477Z,22.97
2022-11-09T17:43:15.100Z,23.17
2022-11-09T17:46:08.851Z,24.83
2022-11-09T17:48:55.262Z,23.60
2022-11-09T17:51:41.431Z,23.00
2022-11-09T17:54:33.905Z,23.90
2022-11-09T17:57:24.789Z,23.30
2022-11-09T18:00:12.417Z,22.80
2022-11-09T18:03:02.981Z,23.63
2022-11-09T18:05:49.391Z,23.47
2022-11-09T18:08:36.267Z,23.23
2022-11-09T18:11:22.900Z,23.13
2022-11-09T18:14:11.142Z,22.97
2022-11-09T18:17:01.255Z,22.67
2022-11-09T18:19:47.643Z,23.10
2022-11-09T18:22:34.042Z,23.43
2022-11-09T18:25:21.265Z,23.40
2022-11-09T18:28:07.594Z,22.30
2022-11-09T18:31:04.241Z,23.23
2022-11-09T18:33:53.176Z,23.47
2022-11-09T18:36:39.941Z,23.00
2022-11-09T18:39:26.633Z,23.70
2022-11-09T18:42:13.309Z,22.80
2022-11-09T18:45:02.258Z,23.17
2022-11-09T18:47:50.987Z,22.77
2022-11-09T18:50:42.709Z,23.60
2022-11-09T18:53:30.761Z,24.67
2022-11-09T18:56:22.710Z,23.50
2022-11-09T18:59:12.467Z,23.17
2022-11-09T19:01:58.769Z,24.63
2022-11-09T19:04:49.604Z,23.50
2022-11-09T19:07:36.557Z,23.97
2022-11-09T19:10:22.952Z,22.83
2022-11-09T19:13:09.830Z,24.83
2022-11-09T19:15:58.476Z,24.13
2022-11-09T19:18:46.276Z,23.50
2022-11-09T19:21:39.098Z,23.57
2022-11-09T19:24:28.587Z,24.03
2022-11-09T19:27:15.085Z,24.23
2022-11-09T19:30:07.991Z,24.30
2022-11-09T19:32:56.087Z,24.43
2022-11-09T19:35:42.468Z,25.07
2022-11-09T19:38:33.520Z,25.30
2022-11-09T19:41:19.986Z,25.70
2022-11-09T19:44:07.262Z,24.93
2022-11-09T19:46:53.889Z,25.77
2022-11-09T19:49:40.275Z,24.93
2022-11-09T19:52:30.142Z,26.13
2022-11-09T19:55:18.031Z,25.47
2022-11-09T19:58:04.817Z,25.30
2022-11-09T20:00:51.108Z,26.10
2022-11-09T20:03:38.595Z,24.87
2022-11-09T20:06:27.492Z,25.37
2022-11-09T20:09:13.890Z,25.83
2022-11-09T20:12:19.771Z,25.47
2022-11-09T20:15:07.438Z,25.30
2022-11-09T20:17:53.920Z,25.63
2022-11-09T20:20:40.414Z,25.90
2022-11-09T20:23:27.210Z,26.17
2022-11-09T20:26:13.610Z,26.17
2022-11-09T20:29:01.408Z,26.10
2022-11-09T20:31:47.823Z,26.00
2022-11-09T20:34:35.204Z,40.83
2022-11-09T20:37:22.102Z,27.43
2022-11-09T20:40:10.125Z,26.33
2022-11-09T20:42:57.551Z,26.30
2022-11-09T20:45:45.738Z,25.53
2022-11-09T20:51:45.410Z,25.70
2022-11-09T20:54:32.145Z,26.33
2022-11-09T20:57:18.722Z,26.27
2022-11-09T21:00:06.250Z,26.70
2022-11-09T21:02:54.236Z,26.17
2022-11-09T21:05:41.129Z,26.97
2022-11-09T21:08:28.259Z,25.57
2022-11-09T21:11:14.789Z,25.40
2022-11-09T21:14:02.716Z,26.33
2022-11-09T21:16:49.199Z,27.40
2022-11-09T21:19:38.139Z,25.63
2022-11-09T21:22:44.553Z,27.60
2022-11-09T21:25:48.529Z,26.70
2022-11-09T21:28:53.197Z,27.23
2022-11-09T21:31:40.179Z,26.67
2022-11-09T21:34:27.641Z,26.90
2022-11-09T21:37:21.504Z,26.30
2022-11-09T21:40:10.710Z,27.07
2022-11-09T21:42:58.215Z,27.43
2022-11-09T21:45:50.175Z,27.10
2022-11-09T21:48:36.655Z,26.43
2022-11-09T21:51:24.157Z,26.33
2022-11-09T21:54:15.406Z,26.93
2022-11-09T21:57:01.725Z,26.80
2022-11-09T21:59:49.207Z,26.93
2022-11-09T22:02:36.469Z,25.90
2022-11-09T22:05:24.237Z,27.63
2022-11-09T22:08:10.672Z,27.10
2022-11-09T22:11:06.399Z,26.57
2022-11-09T22:14:12.112Z,27.23
2022-11-09T22:16:59.092Z,27.70
2022-11-09T22:20:04.244Z,28.07
2022-11-09T22:22:50.830Z,26.83
2022-11-09T22:25:38.224Z,27.20
2022-11-09T22:28:26.526Z,26.93
2022-11-09T22:31:13.575Z,28.03
2022-11-09T22:34:00.215Z,25.93
2022-11-09T22:36:46.733Z,26.87
2022-11-09T22:39:34.228Z,27.07
2022-11-09T22:42:21.185Z,27.67
2022-11-09T22:45:09.903Z,27.60
2022-11-09T22:47:56.574Z,26.47
2022-11-09T22:50:44.210Z,26.53
2022-11-09T22:53:31.202Z,27.00
2022-11-09T22:56:25.196Z,27.83
2022-11-09T22:59:12.222Z,27.87
2022-11-09T23:02:00.133Z,26.80
2022-11-09T23:04:47.800Z,27.60
2022-11-09T23:07:34.076Z,25.87
2022-11-09T23:10:22.222Z,27.13
2022-11-09T23:13:09.123Z,27.77
2022-11-09T23:15:58.210Z,27.53
2022-11-09T23:18:55.142Z,26.97
2022-11-09T23:21:42.207Z,27.70
2022-11-09T23:24:47.136Z,26.97
2022-11-09T23:27:34.864Z,28.13
2022-11-09T23:30:22.084Z,27.53
2022-11-09T23:33:11.605Z,26.43
2022-11-09T23:36:01.204Z,27.93
2022-11-09T23:38:47.972Z,28.23
2022-11-09T23:41:34.320Z,27.53
2022-11-09T23:44:22.258Z,26.87
2022-11-09T23:47:09.207Z,27.10
2022-11-09T23:49:57.752Z,26.57
2022-11-09T23:52:45.479Z,26.47
2022-11-09T23:55:33.319Z,27.93
2022-11-09T23:58:20.528Z,27.93
